Time;durP1;ratioP1;P1;durP2;ratioP2;P2;SDS_P1;SDS_P2;PMS_P1;PMS_P2;Temp;Humidity;BMP_temperature;BMP_pressure;BME280_temperature;BME280_humidity;BME280_pressure;Samples;Min_cycle;Max_cycle;Signal;HPM_P1;HPM_P2
2021/01/25 00:01:35;;;;;;;;;;;14.20;70.40;;;;;;4195918;28;19978;-40
2021/01/25 00:03:55;;;;;;;;;;;14.20;70.30;;;;;;4196364;28;20378;-40
2021/01/25 00:06:16;;;;;;;;;;;14.20;70.40;;;;;;4195591;28;19928;-40
2021/01/25 00:08:38;;;;;;;;;;;14.20;70.40;;;;;;4196261;28;20270;-40
2021/01/25 00:10:58;;;;;;;;;;;14.20;70.50;;;;;;4196488;28;19974;-40
2021/01/25 00:13:19;;;;;;;;;;;14.20;70.50;;;;;;4196486;28;19963;-40
2021/01/25 00:15:43;;;;;;;;;;;14.20;70.60;;;;;;4196330;28;19932;-46
2021/01/25 00:18:03;;;;;;;;;;;14.20;70.70;;;;;;4196144;28;19924;-41
2021/01/25 00:20:24;;;;;;;;;;;14.10;70.60;;;;;;4195790;28;20348;-42
2021/01/25 00:22:45;;;;;;;;;;;14.10;70.70;;;;;;4190251;28;19943;-40
2021/01/25 00:25:06;;;;;;;;;;;14.10;70.70;;;;;;4196196;28;19974;-40
2021/01/25 00:27:28;;;;;;;;;;;14.10;70.70;;;;;;4195811;28;19927;-41
2021/01/25 00:29:49;;;;;;;;;;;14.10;70.80;;;;;;4195749;28;20423;-40
2021/01/25 00:32:10;;;;;;;;;;;14.10;70.80;;;;;;4196067;28;19932;-43
2021/01/25 00:34:31;;;;;;;;;;;14.10;70.70;;;;;;4196020;28;20013;-44
2021/01/25 00:36:52;;;;;;;;;;;14.10;70.70;;;;;;4195609;28;19924;-41
2021/01/25 00:39:13;;;;;;;;;;;14.10;70.70;;;;;;4195978;28;19925;-42
2021/01/25 00:41:34;;;;;;;;;;;14.00;70.70;;;;;;4195614;28;20007;-40
2021/01/25 00:43:55;;;;;;;;;;;14.00;70.70;;;;;;4196260;28;20426;-40
2021/01/25 00:46:15;;;;;;;;;;;14.00;70.80;;;;;;4195314;28;20427;-41
2021/01/25 00:48:37;;;;;;;;;;;14.00;70.80;;;;;;4195774;28;19924;-41
2021/01/25 00:50:58;;;;;;;;;;;14.00;70.80;;;;;;4195823;28;19924;-40
2021/01/25 00:53:18;;;;;;;;;;;14.00;70.80;;;;;;4194506;28;19925;-40
2021/01/25 00:55:40;;;;;;;;;;;14.00;70.70;;;;;;4194931;28;20023;-40
2021/01/25 00:58:01;;;;;;;;;;;14.00;70.70;;;;;;4195597;28;20019;-40
2021/01/25 01:00:22;;;;;;;;;;;14.00;70.80;;;;;;4195751;28;19931;-40
2021/01/25 01:02:43;;;;;;;;;;;13.90;70.70;;;;;;4195547;28;19936;-40
2021/01/25 01:05:06;;;;;;;;;;;13.90;70.70;;;;;;4195083;28;20015;-40
2021/01/25 01:07:26;;;;;;;;;;;13.90;70.70;;;;;;4195534;28;19970;-40
2021/01/25 01:09:47;;;;;;;;;;;13.90;70.80;;;;;;4195948;28;19924;-40
2021/01/25 01:12:09;;;;;;;;;;;13.90;70.80;;;;;;4198451;28;19970;-40
2021/01/25 01:14:29;;;;;;;;;;;13.90;70.80;;;;;;4198456;28;19974;-40
2021/01/25 01:16:50;;;;;;;;;;;13.90;70.80;;;;;;4198417;28;19924;-39
2021/01/25 01:19:11;;;;;;;;;;;13.90;70.90;;;;;;4198951;28;19939;-40
2021/01/25 01:21:33;;;;;;;;;;;13.90;70.90;;;;;;4181729;28;20326;-40
2021/01/25 01:23:54;;;;;;;;;;;13.80;70.90;;;;;;4181943;28;20413;-39
2021/01/25 01:26:14;;;;;;;;;;;13.80;71.00;;;;;;4182277;28;20386;-40
2021/01/25 01:28:35;;;;;;;;;;;13.80;70.80;;;;;;4198108;28;20362;-40
2021/01/25 01:30:56;;;;;;;;;;;13.80;70.70;;;;;;4198579;28;20275;-39
2021/01/25 01:33:18;;;;;;;;;;;14.00;70.50;;;;;;4198280;28;19960;-41
2021/01/25 01:35:39;;;;;;;;;;;14.10;69.90;;;;;;4198286;28;19928;-40
2021/01/25 01:38:00;;;;;;;;;;;14.20;69.30;;;;;;4198079;28;20023;-40
2021/01/25 01:40:21;;;;;;;;;;;14.30;69.00;;;;;;4198325;28;19927;-40
2021/01/25 01:42:42;;;;;;;;;;;14.30;68.60;;;;;;4198251;28;19925;-39
2021/01/25 01:45:04;;;;;;;;;;;14.40;68.50;;;;;;4197789;28;19924;-40
2021/01/25 01:47:26;;;;;;;;;;;14.30;68.30;;;;;;4197910;28;19921;-40
2021/01/25 01:49:50;;;;;;;;;;;14.30;68.30;;;;;;4197981;28;19930;-40
2021/01/25 01:52:11;;;;;;;;;;;14.30;68.50;;;;;;4198072;28;19931;-40
2021/01/25 01:54:32;;;;;;;;;;;14.20;68.60;;;;;;4197927;28;19931;-40
2021/01/25 01:56:53;;;;;;;;;;;14.10;68.80;;;;;;4198184;28;19931;-40
2021/01/25 01:59:14;;;;;;;;;;;14.10;69.20;;;;;;4197525;28;19939;-40
2021/01/25 02:01:35;;;;;;;;;;;14.00;69.20;;;;;;4196810;28;20301;-41
2021/01/25 02:03:58;;;;;;;;;;;14.10;69.30;;;;;;4197354;28;19924;-40
2021/01/25 02:06:21;;;;;;;;;;;14.30;68.30;;;;;;4198027;28;19931;-42
2021/01/25 02:08:45;;;;;;;;;;;14.50;67.70;;;;;;4197853;28;19938;-42
2021/01/25 02:11:08;;;;;;;;;;;14.60;67.20;;;;;;4197635;28;19924;-40
2021/01/25 02:13:29;;;;;;;;;;;14.60;66.90;;;;;;4197366;28;19920;-40
2021/01/25 02:15:51;;;;;;;;;;;14.60;66.70;;;;;;4198097;28;19921;-40
2021/01/25 02:18:15;;;;;;;;;;;14.60;66.70;;;;;;4197453;28;19924;-40
2021/01/25 02:20:38;;;;;;;;;;;14.60;66.70;;;;;;4197102;28;20003;-40
2021/01/25 02:23:25;;;;;;;;;;;14.60;66.80;;;;;;4197764;28;19947;-40
2021/01/25 02:25:49;;;;;;;;;;;14.50;66.90;;;;;;4180720;28;19925;-40
2021/01/25 02:28:11;;;;;;;;;;;14.50;66.90;;;;;;4194552;28;19924;-40
2021/01/25 02:30:34;;;;;;;;;;;14.60;66.60;;;;;;4197505;28;19943;-40
2021/01/25 02:32:55;;;;;;;;;;;14.60;66.40;;;;;;4197642;28;20426;-40
2021/01/25 02:35:16;;;;;;;;;;;14.70;66.30;;;;;;4196875;28;19920;-39
2021/01/25 02:37:38;;;;;;;;;;;14.70;66.20;;;;;;4197200;28;19928;-40
2021/01/25 02:40:00;;;;;;;;;;;14.90;65.40;;;;;;4197402;28;19932;-40
2021/01/25 02:42:20;;;;;;;;;;;15.10;64.70;;;;;;4197128;28;20378;-39
2021/01/25 02:44:42;;;;;;;;;;;15.20;64.30;;;;;;4196798;28;19924;-40
2021/01/25 02:47:03;;;;;;;;;;;15.20;64.00;;;;;;4197033;28;20026;-40
2021/01/25 02:49:24;;;;;;;;;;;15.20;64.00;;;;;;4196824;28;19928;-39
2021/01/25 02:51:45;;;;;;;;;;;15.10;64.00;;;;;;4196879;28;20020;-40
2021/01/25 02:54:07;;;;;;;;;;;15.10;64.10;;;;;;4196884;28;19934;-40
2021/01/25 02:56:28;;;;;;;;;;;15.00;64.30;;;;;;4197109;28;19978;-40
2021/01/25 02:58:49;;;;;;;;;;;15.00;64.50;;;;;;4196696;28;19932;-40
2021/01/25 03:01:11;;;;;;;;;;;15.00;64.60;;;;;;4196518;28;19920;-40
2021/01/25 03:03:35;;;;;;;;;;;15.00;64.60;;;;;;4196554;28;19924;-39
2021/01/25 03:05:56;;;;;;;;;;;14.90;64.70;;;;;;4196730;28;19966;-40
2021/01/25 03:08:16;;;;;;;;;;;14.90;64.90;;;;;;4196875;28;19979;-40
2021/01/25 03:10:37;;;;;;;;;;;14.90;64.80;;;;;;4196737;28;19974;-40
2021/01/25 03:13:01;;;;;;;;;;;15.00;64.40;;;;;;4196512;28;20409;-41
2021/01/25 03:15:21;;;;;;;;;;;15.10;64.20;;;;;;4196986;28;19921;-40
2021/01/25 03:17:43;;;;;;;;;;;15.10;63.90;;;;;;4196545;28;20428;-40
2021/01/25 03:20:04;;;;;;;;;;;15.10;63.80;;;;;;4180597;28;20440;-40
2021/01/25 03:22:28;;;;;;;;;;;15.20;63.50;;;;;;4180856;28;19925;-46
2021/01/25 03:24:48;;;;;;;;;;;15.30;63.20;;;;;;4196360;28;19959;-40
2021/01/25 03:27:09;;;;;;;;;;;15.30;63.10;;;;;;4196975;28;19931;-40
2021/01/25 03:29:30;;;;;;;;;;;15.40;62.90;;;;;;4196255;28;19974;-40
2021/01/25 03:31:51;;;;;;;;;;;15.50;62.20;;;;;;4196160;28;20017;-41
2021/01/25 03:34:13;;;;;;;;;;;15.60;61.60;;;;;;4195775;28;19931;-48
2021/01/25 03:36:34;;;;;;;;;;;15.70;61.40;;;;;;4196355;28;19978;-41
2021/01/25 03:38:54;;;;;;;;;;;15.70;61.40;;;;;;4196500;28;19924;-40
2021/01/25 03:41:15;;;;;;;;;;;15.70;61.50;;;;;;4196269;28;20019;-40
2021/01/25 03:43:36;;;;;;;;;;;15.70;61.40;;;;;;4196283;28;20019;-50
2021/01/25 03:45:57;;;;;;;;;;;15.70;61.40;;;;;;4196301;28;19924;-41
2021/01/25 03:48:18;;;;;;;;;;;15.60;61.40;;;;;;4195994;28;19924;-42
2021/01/25 03:50:39;;;;;;;;;;;15.60;61.60;;;;;;4196117;28;19931;-39
2021/01/25 03:53:01;;;;;;;;;;;15.60;61.80;;;;;;4196222;28;19939;-42
2021/01/25 03:55:22;;;;;;;;;;;15.60;61.80;;;;;;4196428;28;20514;-41
2021/01/25 03:57:43;;;;;;;;;;;15.60;61.60;;;;;;4196093;28;20023;-41
2021/01/25 04:00:04;;;;;;;;;;;15.60;61.50;;;;;;4196429;28;19925;-39
2021/01/25 04:02:27;;;;;;;;;;;15.60;61.60;;;;;;4195458;28;19931;-40
2021/01/25 04:04:48;;;;;;;;;;;15.50;61.70;;;;;;4196097;28;19931;-40
2021/01/25 04:07:10;;;;;;;;;;;15.50;61.80;;;;;;4196249;28;19938;-39
2021/01/25 04:09:31;;;;;;;;;;;15.50;62.70;;;;;;4194886;28;19920;-40
2021/01/25 04:11:52;;;;;;;;;;;15.40;61.80;;;;;;4196373;28;19970;-39
2021/01/25 04:14:12;;;;;;;;;;;15.40;62.10;;;;;;4196234;28;20696;-42
2021/01/25 04:16:33;;;;;;;;;;;15.30;62.40;;;;;;4195826;28;19931;-39
2021/01/25 04:18:54;;;;;;;;;;;15.40;62.30;;;;;;4196086;28;20407;-40
2021/01/25 04:21:15;;;;;;;;;;;15.40;62.00;;;;;;4196154;28;19920;-43
2021/01/25 04:23:37;;;;;;;;;;;15.50;61.80;;;;;;4195948;28;19924;-40
2021/01/25 04:25:58;;;;;;;;;;;15.50;61.80;;;;;;4196263;28;20308;-40
2021/01/25 04:28:19;;;;;;;;;;;15.50;61.80;;;;;;4195090;28;20333;-40
2021/01/25 04:30:40;;;;;;;;;;;15.60;61.70;;;;;;4195999;28;20386;-39
2021/01/25 04:33:01;;;;;;;;;;;15.60;61.40;;;;;;4179727;28;19925;-40
2021/01/25 04:35:22;;;;;;;;;;;15.60;61.20;;;;;;4179399;28;19931;-39
2021/01/25 04:37:42;;;;;;;;;;;15.60;61.30;;;;;;4179259;28;19925;-39
2021/01/25 04:40:05;;;;;;;;;;;15.50;61.30;;;;;;4179471;28;19921;-40
2021/01/25 04:42:27;;;;;;;;;;;15.50;61.60;;;;;;4194946;28;19924;-40
2021/01/25 04:44:47;;;;;;;;;;;15.40;61.90;;;;;;4197197;28;20302;-40
2021/01/25 04:47:09;;;;;;;;;;;15.30;62.20;;;;;;4198998;28;19947;-40
2021/01/25 04:49:31;;;;;;;;;;;15.30;62.30;;;;;;4198913;28;20371;-40
2021/01/25 04:51:52;;;;;;;;;;;15.40;62.10;;;;;;4198874;28;19921;-43
2021/01/25 04:54:14;;;;;;;;;;;15.50;61.70;;;;;;4198818;28;19925;-40
2021/01/25 04:56:35;;;;;;;;;;;15.50;61.50;;;;;;4198995;28;19932;-39
2021/01/25 04:58:56;;;;;;;;;;;15.50;61.50;;;;;;4198949;28;20299;-41
2021/01/25 05:01:17;;;;;;;;;;;15.60;61.50;;;;;;4198147;28;19981;-40
2021/01/25 05:03:37;;;;;;;;;;;15.70;60.90;;;;;;4198999;28;19920;-40
2021/01/25 05:05:58;;;;;;;;;;;15.70;60.60;;;;;;4198908;28;19920;-40
2021/01/25 05:08:19;;;;;;;;;;;15.80;60.40;;;;;;4198667;28;19924;-40
2021/01/25 05:10:40;;;;;;;;;;;15.90;60.10;;;;;;4198631;28;19959;-40
2021/01/25 05:13:01;;;;;;;;;;;16.10;59.60;;;;;;4198743;28;19926;-40
2021/01/25 05:15:26;;;;;;;;;;;16.30;59.00;;;;;;4198610;28;19924;-40
2021/01/25 05:17:47;;;;;;;;;;;16.50;58.50;;;;;;4182104;28;19924;-41
2021/01/25 05:20:08;;;;;;;;;;;16.50;58.30;;;;;;4182652;28;19952;-41
2021/01/25 05:22:35;;;;;;;;;;;16.50;58.20;;;;;;4198444;28;20034;-41
2021/01/25 05:24:56;;;;;;;;;;;16.50;58.20;;;;;;4198415;28;20377;-40
2021/01/25 05:27:23;;;;;;;;;;;16.40;58.40;;;;;;4198405;28;19924;-39
2021/01/25 05:29:45;;;;;;;;;;;16.30;58.60;;;;;;4198465;28;20043;-39
2021/01/25 05:32:08;;;;;;;;;;;16.30;58.90;;;;;;4198242;28;19920;-39
2021/01/25 05:34:29;;;;;;;;;;;16.10;59.10;;;;;;4197969;28;19927;-39
2021/01/25 05:36:50;;;;;;;;;;;16.00;59.40;;;;;;4198598;28;19946;-40
2021/01/25 05:39:13;;;;;;;;;;;16.00;59.60;;;;;;4197960;28;19924;-42
2021/01/25 05:41:36;;;;;;;;;;;16.10;59.50;;;;;;4198598;28;19934;-41
2021/01/25 05:43:59;;;;;;;;;;;16.20;59.20;;;;;;4198275;28;20449;-41
2021/01/25 05:46:20;;;;;;;;;;;16.30;59.00;;;;;;4197753;28;20437;-40
2021/01/25 05:48:42;;;;;;;;;;;16.30;58.90;;;;;;4198524;28;19924;-39
2021/01/25 05:51:13;;;;;;;;;;;16.20;59.60;;;;;;4197931;28;19924;-39
2021/01/25 05:53:37;;;;;;;;;;;16.20;59.10;;;;;;4197979;28;20007;-43
2021/01/25 05:55:58;;;;;;;;;;;16.20;59.00;;;;;;4180911;28;19927;-39
2021/01/25 05:58:21;;;;;;;;;;;16.20;59.00;;;;;;4181299;28;20381;-40
2021/01/25 06:00:41;;;;;;;;;;;16.20;58.90;;;;;;4190652;28;19924;-39
2021/01/25 06:03:03;;;;;;;;;;;16.20;58.80;;;;;;4198069;28;19928;-39
2021/01/25 06:05:25;;;;;;;;;;;16.30;58.70;;;;;;4197846;28;19928;-39
2021/01/25 06:07:49;;;;;;;;;;;16.50;58.30;;;;;;4198055;28;20402;-39
2021/01/25 06:10:13;;;;;;;;;;;16.60;57.70;;;;;;4197838;28;19928;-40
2021/01/25 06:12:35;;;;;;;;;;;16.70;57.40;;;;;;4197597;28;19978;-40
2021/01/25 06:15:02;;;;;;;;;;;16.80;57.30;;;;;;4197881;28;19951;-40
2021/01/25 06:17:24;;;;;;;;;;;16.70;57.40;;;;;;4197632;28;19932;-40
2021/01/25 06:19:46;;;;;;;;;;;16.60;57.50;;;;;;4197667;28;19955;-39
2021/01/25 06:22:08;;;;;;;;;;;16.50;57.90;;;;;;4197353;28;19973;-39
2021/01/25 06:24:29;;;;;;;;;;;16.30;58.20;;;;;;4197791;28;20374;-39
2021/01/25 06:26:50;;;;;;;;;;;16.20;58.70;;;;;;4197436;28;20405;-39
2021/01/25 06:29:10;;;;;;;;;;;16.10;59.00;;;;;;4197033;28;19966;-39
2021/01/25 06:31:34;;;;;;;;;;;16.10;59.00;;;;;;4197226;28;19924;-39
2021/01/25 06:34:01;;;;;;;;;;;16.20;58.90;;;;;;4196920;28;19931;-40
2021/01/25 06:36:23;;;;;;;;;;;16.10;59.00;;;;;;4197598;28;20294;-39
2021/01/25 06:38:44;;;;;;;;;;;16.10;59.10;;;;;;4197153;28;20015;-40
2021/01/25 06:41:09;;;;;;;;;;;16.00;59.20;;;;;;4180667;28;19928;-39
2021/01/25 06:43:31;;;;;;;;;;;16.00;59.20;;;;;;4180507;28;20023;-40
2021/01/25 06:45:52;;;;;;;;;;;16.00;59.20;;;;;;4187646;28;20284;-40
2021/01/25 06:48:13;;;;;;;;;;;16.00;59.40;;;;;;4197064;28;19920;-40
2021/01/25 06:50:37;;;;;;;;;;;16.00;59.30;;;;;;4197139;28;20382;-40
2021/01/25 06:52:59;;;;;;;;;;;16.10;58.90;;;;;;4196594;28;19978;-40
2021/01/25 06:55:22;;;;;;;;;;;16.20;58.50;;;;;;4197378;28;19921;-39
2021/01/25 06:57:43;;;;;;;;;;;16.30;58.30;;;;;;4196788;28;19931;-40
2021/01/25 07:00:06;;;;;;;;;;;16.30;58.30;;;;;;4196383;28;20098;-40
2021/01/25 07:02:26;;;;;;;;;;;16.30;58.70;;;;;;4180341;28;19925;-40
2021/01/25 07:04:50;;;;;;;;;;;16.20;58.90;;;;;;4180335;28;20019;-40
2021/01/25 07:07:21;;;;;;;;;;;16.10;59.10;;;;;;4180223;28;20379;-40
2021/01/25 07:09:47;;;;;;;;;;;16.10;59.60;;;;;;4179845;28;19927;-44
2021/01/25 07:12:07;;;;;;;;;;;16.00;59.80;;;;;;4180283;28;20007;-47
2021/01/25 07:14:29;;;;;;;;;;;16.10;61.10;;;;;;4180237;28;20363;-40
2021/01/25 07:16:51;;;;;;;;;;;16.10;61.70;;;;;;4181721;28;20056;-40
2021/01/25 07:19:12;;;;;;;;;;;16.00;61.80;;;;;;4196291;28;20429;-42
2021/01/25 07:21:33;;;;;;;;;;;16.00;61.50;;;;;;4196137;28;19924;-41
2021/01/25 07:23:58;;;;;;;;;;;16.00;61.40;;;;;;4187639;28;20408;-44
2021/01/25 07:26:20;;;;;;;;;;;16.00;61.10;;;;;;4196657;28;19958;-44
2021/01/25 07:28:44;;;;;;;;;;;16.10;60.70;;;;;;4196517;28;19928;-41
2021/01/25 07:31:05;;;;;;;;;;;16.20;60.00;;;;;;4196753;28;19935;-41
2021/01/25 07:33:25;;;;;;;;;;;16.30;59.60;;;;;;4196660;28;19964;-40
2021/01/25 07:35:47;;;;;;;;;;;16.40;59.40;;;;;;4196736;28;19924;-41
2021/01/25 07:38:08;;;;;;;;;;;16.40;59.40;;;;;;4196581;28;19931;-41
2021/01/25 07:40:29;;;;;;;;;;;16.40;59.30;;;;;;4183731;28;19930;-41
2021/01/25 07:42:51;;;;;;;;;;;16.50;58.90;;;;;;4196382;28;20374;-41
2021/01/25 07:45:12;;;;;;;;;;;16.60;58.60;;;;;;4196403;28;20442;-41
2021/01/25 07:47:33;;;;;;;;;;;16.60;58.40;;;;;;4196599;28;20374;-41
2021/01/25 07:49:54;;;;;;;;;;;16.50;58.50;;;;;;4196460;28;19978;-41
2021/01/25 07:52:16;;;;;;;;;;;16.50;58.50;;;;;;4196399;28;19924;-40
2021/01/25 07:54:37;;;;;;;;;;;16.40;58.50;;;;;;4196468;28;19920;-41
2021/01/25 07:56:59;;;;;;;;;;;16.30;58.70;;;;;;4196209;28;19927;-41
2021/01/25 07:59:23;;;;;;;;;;;16.20;58.90;;;;;;4194361;28;20020;-41
2021/01/25 08:01:47;;;;;;;;;;;16.20;59.00;;;;;;4196289;28;20650;-41
2021/01/25 08:04:11;;;;;;;;;;;16.30;58.90;;;;;;4196343;28;20043;-42
2021/01/25 08:06:33;;;;;;;;;;;16.40;58.50;;;;;;4196357;28;19924;-41
2021/01/25 08:08:54;;;;;;;;;;;16.40;58.40;;;;;;4196246;28;20366;-41
2021/01/25 08:11:16;;;;;;;;;;;16.30;58.40;;;;;;4196307;28;19974;-45
2021/01/25 08:13:39;;;;;;;;;;;16.30;58.50;;;;;;4196168;28;20037;-45
2021/01/25 08:16:02;;;;;;;;;;;16.40;58.40;;;;;;4196168;28;19927;-41
2021/01/25 08:18:30;;;;;;;;;;;16.40;58.10;;;;;;4195744;28;19974;-41
2021/01/25 08:20:55;;;;;;;;;;;16.50;57.90;;;;;;4199157;28;20445;-41
2021/01/25 08:23:19;;;;;;;;;;;16.40;57.90;;;;;;4199214;28;20002;-41
2021/01/25 08:25:40;;;;;;;;;;;16.30;58.20;;;;;;4199339;28;20302;-42
2021/01/25 08:28:03;;;;;;;;;;;16.20;58.50;;;;;;4198996;28;20374;-41
2021/01/25 08:30:30;;;;;;;;;;;16.20;58.80;;;;;;4199312;28;19936;-41
2021/01/25 08:32:52;;;;;;;;;;;16.10;58.70;;;;;;4199309;28;19925;-41
2021/01/25 08:35:14;;;;;;;;;;;16.10;58.70;;;;;;4199321;28;19963;-41
2021/01/25 08:37:36;;;;;;;;;;;16.00;58.90;;;;;;4199207;28;19925;-41
2021/01/25 08:39:57;;;;;;;;;;;15.90;59.20;;;;;;4198563;28;19924;-40
2021/01/25 08:42:19;;;;;;;;;;;15.80;59.40;;;;;;4198808;28;19959;-41
2021/01/25 08:44:45;;;;;;;;;;;15.70;59.70;;;;;;4199208;28;19978;-42
2021/01/25 08:47:08;;;;;;;;;;;15.60;60.00;;;;;;4182425;28;19951;-41
2021/01/25 08:49:32;;;;;;;;;;;15.70;59.80;;;;;;4182645;28;20379;-41
2021/01/25 08:51:55;;;;;;;;;;;15.80;59.60;;;;;;4182350;28;19928;-41
2021/01/25 08:54:20;;;;;;;;;;;15.90;59.40;;;;;;4182523;28;19928;-41
2021/01/25 08:56:42;;;;;;;;;;;15.90;59.40;;;;;;4182375;28;19929;-41
2021/01/25 08:59:06;;;;;;;;;;;15.90;59.30;;;;;;4198420;28;19928;-41
2021/01/25 09:01:29;;;;;;;;;;;16.00;59.10;;;;;;4198786;28;19952;-43
2021/01/25 09:03:51;;;;;;;;;;;16.00;58.90;;;;;;4198648;28;19921;-41
2021/01/25 09:06:12;;;;;;;;;;;16.00;58.80;;;;;;4198804;28;19931;-41
2021/01/25 09:08:33;;;;;;;;;;;16.00;58.70;;;;;;4198805;28;19930;-41
2021/01/25 09:10:54;;;;;;;;;;;16.10;58.50;;;;;;4198678;28;19931;-41
2021/01/25 09:13:15;;;;;;;;;;;16.10;58.10;;;;;;4198790;28;20287;-46
2021/01/25 09:15:36;;;;;;;;;;;16.10;58.10;;;;;;4198692;28;20026;-41
2021/01/25 09:17:57;;;;;;;;;;;16.00;58.00;;;;;;4198549;28;19924;-43
2021/01/25 09:20:19;;;;;;;;;;;16.10;58.00;;;;;;4198619;28;19924;-42
2021/01/25 09:22:40;;;;;;;;;;;16.10;57.70;;;;;;4198490;28;20424;-41
2021/01/25 09:25:02;;;;;;;;;;;16.20;57.60;;;;;;4198504;28;19924;-41
2021/01/25 09:27:23;;;;;;;;;;;16.10;57.60;;;;;;4198518;28;19977;-41
2021/01/25 09:29:45;;;;;;;;;;;16.10;57.80;;;;;;4198400;28;20440;-41
2021/01/25 09:32:06;;;;;;;;;;;16.00;58.00;;;;;;4197240;28;19928;-41
2021/01/25 09:34:27;;;;;;;;;;;16.00;58.00;;;;;;4197737;28;19961;-41
2021/01/25 09:36:49;;;;;;;;;;;16.00;58.10;;;;;;4198112;28;20011;-47
2021/01/25 09:39:10;;;;;;;;;;;15.90;58.20;;;;;;4198293;28;19928;-41
2021/01/25 09:41:31;;;;;;;;;;;15.80;58.40;;;;;;4198206;28;20385;-42
2021/01/25 09:43:52;;;;;;;;;;;15.80;58.80;;;;;;4198080;28;20386;-41
2021/01/25 09:46:13;;;;;;;;;;;15.70;59.00;;;;;;4198310;28;19931;-41
2021/01/25 09:48:34;;;;;;;;;;;15.60;59.10;;;;;;4198120;28;19932;-41
2021/01/25 09:50:55;;;;;;;;;;;15.50;59.30;;;;;;4198095;28;20460;-41
2021/01/25 09:53:17;;;;;;;;;;;15.40;59.40;;;;;;4198089;28;19920;-41
2021/01/25 09:55:39;;;;;;;;;;;15.50;59.30;;;;;;4197884;28;20642;-41
2021/01/25 09:58:02;;;;;;;;;;;15.50;59.20;;;;;;4198155;28;20398;-41
2021/01/25 10:00:24;;;;;;;;;;;15.50;59.30;;;;;;4197312;28;19925;-42
2021/01/25 10:02:45;;;;;;;;;;;15.50;59.80;;;;;;4197654;28;20074;-41
2021/01/25 10:05:08;;;;;;;;;;;15.50;59.70;;;;;;4191531;28;19978;-41
2021/01/25 10:07:34;;;;;;;;;;;15.70;59.30;;;;;;4197533;28;20350;-41
2021/01/25 10:09:56;;;;;;;;;;;15.70;59.00;;;;;;4196996;28;19981;-41
2021/01/25 10:12:42;;;;;;;;;;;15.70;58.80;;;;;;4197206;28;19931;-41
2021/01/25 10:15:26;;;;;;;;;;;15.80;58.50;;;;;;4191691;28;20440;-41
2021/01/25 10:18:12;;;;;;;;;;;16.00;58.00;;;;;;4197279;28;19927;-41
2021/01/25 10:20:58;;;;;;;;;;;16.10;57.60;;;;;;4197269;28;19932;-41
2021/01/25 10:23:46;;;;;;;;;;;16.10;57.50;;;;;;4197603;28;19931;-41
2021/01/25 10:26:32;;;;;;;;;;;16.10;57.50;;;;;;4197445;28;19928;-41
2021/01/25 10:28:53;;;;;;;;;;;16.10;57.30;;;;;;4197732;28;20011;-41
2021/01/25 10:31:14;;;;;;;;;;;16.10;57.20;;;;;;4195756;28;20015;-41
2021/01/25 10:33:35;;;;;;;;;;;16.00;57.20;;;;;;4196640;28;19928;-40
2021/01/25 10:35:56;;;;;;;;;;;16.00;57.30;;;;;;4197277;28;19924;-41
2021/01/25 10:38:17;;;;;;;;;;;16.10;57.10;;;;;;4197472;28;19936;-41
2021/01/25 10:40:38;;;;;;;;;;;16.20;56.80;;;;;;4197107;28;19963;-41
2021/01/25 10:43:00;;;;;;;;;;;16.20;56.50;;;;;;4196680;28;19920;-43
2021/01/25 10:45:20;;;;;;;;;;;16.30;56.40;;;;;;4197460;28;19924;-41
2021/01/25 10:47:41;;;;;;;;;;;16.30;56.30;;;;;;4197414;28;19990;-41
2021/01/25 10:50:03;;;;;;;;;;;16.30;56.20;;;;;;4197187;28;19931;-42
2021/01/25 10:52:26;;;;;;;;;;;16.30;56.20;;;;;;4197394;28;19920;-41
2021/01/25 10:54:47;;;;;;;;;;;16.20;56.40;;;;;;4197087;28;19928;-44
2021/01/25 10:57:09;;;;;;;;;;;16.10;56.50;;;;;;4197430;28;20011;-42
2021/01/25 10:59:31;;;;;;;;;;;16.00;56.60;;;;;;4197154;28;20382;-42
2021/01/25 11:01:51;;;;;;;;;;;16.10;56.70;;;;;;4196592;28;19966;-41
2021/01/25 11:04:12;;;;;;;;;;;16.40;56.90;;;;;;4196819;28;20344;-43
2021/01/25 11:06:33;;;;;;;;;;;16.50;55.70;;;;;;4196707;28;20421;-48
2021/01/25 11:08:54;;;;;;;;;;;16.60;55.50;;;;;;4196616;28;20023;-44
2021/01/25 11:11:15;;;;;;;;;;;16.60;55.40;;;;;;4196535;28;19931;-42
2021/01/25 11:13:36;;;;;;;;;;;16.50;55.50;;;;;;4196408;28;20460;-41
2021/01/25 11:15:57;;;;;;;;;;;16.40;55.80;;;;;;4195418;28;20007;-41
2021/01/25 11:18:18;;;;;;;;;;;16.30;56.00;;;;;;4196664;28;20019;-41
2021/01/25 11:20:39;;;;;;;;;;;16.20;56.40;;;;;;4196425;28;20011;-41
2021/01/25 11:23:00;;;;;;;;;;;16.10;56.60;;;;;;4196394;28;19920;-41
2021/01/25 11:25:21;;;;;;;;;;;16.00;56.90;;;;;;4196668;28;19943;-42
2021/01/25 11:27:42;;;;;;;;;;;15.90;57.00;;;;;;4196460;28;19932;-41
2021/01/25 11:30:03;;;;;;;;;;;15.90;57.00;;;;;;4195995;28;19924;-41
2021/01/25 11:32:25;;;;;;;;;;;15.90;57.10;;;;;;4187601;28;20432;-42
2021/01/25 11:34:45;;;;;;;;;;;15.80;57.30;;;;;;4196091;28;20015;-42
2021/01/25 11:37:06;;;;;;;;;;;15.70;57.50;;;;;;4195919;28;20404;-41
2021/01/25 11:39:30;;;;;;;;;;;15.70;57.70;;;;;;4196033;28;20313;-41
2021/01/25 11:41:51;;;;;;;;;;;15.70;57.80;;;;;;4179636;28;19921;-44
2021/01/25 11:44:12;;;;;;;;;;;15.70;57.90;;;;;;4179596;28;20387;-40
2021/01/25 11:46:33;;;;;;;;;;;15.60;57.90;;;;;;4180238;28;19956;-41
2021/01/25 11:48:54;;;;;;;;;;;15.60;58.00;;;;;;4188271;28;19966;-41
2021/01/25 11:51:15;;;;;;;;;;;15.60;58.20;;;;;;4196161;28;20298;-41
2021/01/25 11:53:39;;;;;;;;;;;15.70;58.10;;;;;;4195762;28;19924;-42
2021/01/25 11:55:59;;;;;;;;;;;15.70;58.00;;;;;;4196136;28;19925;-41
2021/01/25 11:58:20;;;;;;;;;;;15.80;58.10;;;;;;4195330;28;20689;-41
2021/01/25 12:00:41;;;;;;;;;;;15.80;58.30;;;;;;4196218;28;20018;-41
2021/01/25 12:03:03;;;;;;;;;;;15.80;58.20;;;;;;4195905;28;19927;-41
2021/01/25 12:05:25;;;;;;;;;;;15.80;58.10;;;;;;4196004;28;20371;-41
2021/01/25 12:07:46;;;;;;;;;;;15.80;58.20;;;;;;4195600;28;19971;-42
2021/01/25 12:10:08;;;;;;;;;;;15.80;58.20;;;;;;4179282;28;19921;-41
2021/01/25 12:12:29;;;;;;;;;;;15.80;58.30;;;;;;4184417;28;19924;-41
2021/01/25 12:14:54;;;;;;;;;;;15.80;58.50;;;;;;4195789;28;19927;-41
2021/01/25 12:17:14;;;;;;;;;;;15.80;58.50;;;;;;4195525;28;19924;-41
2021/01/25 12:19:36;;;;;;;;;;;15.80;58.40;;;;;;4194634;28;19928;-41
2021/01/25 12:21:59;;;;;;;;;;;15.80;58.50;;;;;;4195953;28;19924;-41
2021/01/25 12:24:20;;;;;;;;;;;15.80;58.50;;;;;;4195193;28;19947;-41
2021/01/25 12:26:41;;;;;;;;;;;15.70;58.50;;;;;;4195182;28;20006;-41
2021/01/25 12:29:02;;;;;;;;;;;15.70;58.70;;;;;;4186116;28;19964;-42
2021/01/25 12:31:24;;;;;;;;;;;15.60;58.80;;;;;;4189363;28;19933;-42
2021/01/25 12:33:45;;;;;;;;;;;15.60;58.80;;;;;;4188943;28;19924;-41
2021/01/25 12:36:06;;;;;;;;;;;15.50;59.00;;;;;;4195400;28;19982;-41
2021/01/25 12:38:27;;;;;;;;;;;15.40;59.20;;;;;;4189450;28;19920;-40
2021/01/25 12:40:48;;;;;;;;;;;15.40;59.30;;;;;;4195510;28;19989;-41
2021/01/25 12:43:09;;;;;;;;;;;15.30;59.50;;;;;;4195651;28;19924;-40
2021/01/25 12:45:35;;;;;;;;;;;15.30;59.60;;;;;;4196290;28;19928;-41
2021/01/25 12:47:56;;;;;;;;;;;15.20;60.50;;;;;;4196036;28;19935;-40
2021/01/25 12:50:17;;;;;;;;;;;15.20;59.70;;;;;;4195513;28;20052;-41
2021/01/25 12:52:38;;;;;;;;;;;15.10;59.80;;;;;;4196120;28;20436;-40
2021/01/25 12:55:04;;;;;;;;;;;15.00;60.10;;;;;;4196485;28;19947;-39
2021/01/25 12:57:25;;;;;;;;;;;15.00;60.10;;;;;;4195253;28;19947;-39
2021/01/25 12:59:48;;;;;;;;;;;15.00;60.40;;;;;;4184504;28;19920;-40
2021/01/25 13:02:08;;;;;;;;;;;14.90;60.40;;;;;;4188128;28;19920;-40
2021/01/25 13:04:30;;;;;;;;;;;14.90;60.60;;;;;;4194657;28;19928;-40
2021/01/25 13:06:50;;;;;;;;;;;14.80;60.80;;;;;;4198407;28;19967;-39
2021/01/25 13:09:12;;;;;;;;;;;14.80;60.90;;;;;;4181010;28;19948;-41
2021/01/25 13:11:35;;;;;;;;;;;14.70;60.90;;;;;;4188553;28;20027;-42
2021/01/25 13:13:55;;;;;;;;;;;14.70;61.00;;;;;;4183186;28;20366;-40
2021/01/25 13:16:16;;;;;;;;;;;14.80;61.00;;;;;;4198217;28;19961;-40
2021/01/25 13:18:37;;;;;;;;;;;14.90;60.40;;;;;;4190298;28;19928;-41
2021/01/25 13:20:58;;;;;;;;;;;15.00;59.90;;;;;;4188078;28;20389;-40
2021/01/25 13:23:19;;;;;;;;;;;15.20;59.70;;;;;;4197701;28;19924;-40
2021/01/25 13:25:40;;;;;;;;;;;15.20;59.50;;;;;;4197003;28;19930;-41
2021/01/25 13:28:01;;;;;;;;;;;15.20;59.40;;;;;;4198363;28;20374;-40
2021/01/25 13:30:25;;;;;;;;;;;15.20;59.40;;;;;;4198257;28;19924;-40
2021/01/25 13:32:45;;;;;;;;;;;15.20;59.40;;;;;;4197663;28;19924;-39
2021/01/25 13:35:07;;;;;;;;;;;15.10;59.40;;;;;;4197883;28;20441;-40
2021/01/25 13:37:28;;;;;;;;;;;15.10;59.50;;;;;;4197944;28;20678;-40
2021/01/25 13:39:49;;;;;;;;;;;15.10;59.70;;;;;;4198401;28;20599;-40
2021/01/25 13:42:25;;;;;;;;;;;15.00;59.80;;;;;;4197879;28;20409;-40
2021/01/25 13:44:46;;;;;;;;;;;15.00;59.90;;;;;;4197733;28;20136;-40
2021/01/25 13:47:07;;;;;;;;;;;14.90;60.00;;;;;;4193895;28;19928;-40